createdAt,value
2023-02-28T00:00:02.904Z,0.82
2023-02-28T00:01:03.673Z,0.81
2023-02-28T00:02:02.980Z,0.81
2023-02-28T00:03:02.908Z,0.80
2023-02-28T00:04:02.893Z,0.82
2023-02-28T00:05:02.856Z,0.84
2023-02-28T00:06:02.860Z,0.82
2023-02-28T00:07:02.877Z,0.84
2023-02-28T00:08:02.813Z,0.86
2023-02-28T00:09:02.802Z,0.86
2023-02-28T00:10:02.820Z,0.89
2023-02-28T00:11:02.774Z,0.88
2023-02-28T00:12:02.773Z,0.89
2023-02-28T00:13:02.746Z,0.88
2023-02-28T00:14:02.745Z,0.89
2023-02-28T00:15:02.775Z,0.90
2023-02-28T00:16:02.721Z,0.90
2023-02-28T00:17:02.692Z,0.89
2023-02-28T00:18:02.745Z,0.90
2023-02-28T00:19:02.694Z,0.88
2023-02-28T00:20:02.680Z,0.88
2023-02-28T00:21:02.666Z,0.88
2023-02-28T00:22:02.659Z,0.89
2023-02-28T00:23:02.692Z,0.90
2023-02-28T00:24:02.595Z,0.89
2023-02-28T00:25:02.598Z,0.93
2023-02-28T00:26:02.610Z,0.92
2023-02-28T00:27:02.574Z,0.93
2023-02-28T00:28:02.635Z,0.90
2023-02-28T00:29:02.610Z,0.90
2023-02-28T00:30:02.536Z,0.90
2023-02-28T00:31:02.544Z,0.89
2023-02-28T00:32:02.557Z,0.90
2023-02-28T00:33:02.556Z,0.89
2023-02-28T00:34:02.510Z,0.89
2023-02-28T00:35:02.477Z,0.92
2023-02-28T00:36:02.530Z,0.90
2023-02-28T00:37:02.482Z,0.90
2023-02-28T00:38:03.152Z,0.90
2023-02-28T00:39:02.464Z,0.90
2023-02-28T00:40:02.401Z,0.89
2023-02-28T00:41:02.435Z,0.88
2023-02-28T00:42:02.416Z,0.89
2023-02-28T00:43:02.441Z,0.88
2023-02-28T00:44:02.349Z,0.86
2023-02-28T00:45:02.481Z,0.88
2023-02-28T00:46:02.512Z,0.88
2023-02-28T00:47:02.325Z,0.88
2023-02-28T00:48:02.309Z,0.84
2023-02-28T00:49:02.291Z,0.84
2023-02-28T00:50:02.336Z,0.84
2023-02-28T00:51:02.286Z,0.82
2023-02-28T00:52:02.272Z,0.84
2023-02-28T00:53:02.280Z,0.82
2023-02-28T00:54:02.234Z,0.81
2023-02-28T00:55:02.246Z,0.82
2023-02-28T00:56:02.268Z,0.82
2023-02-28T00:57:02.206Z,0.82
2023-02-28T00:58:02.160Z,0.81
2023-02-28T00:59:02.204Z,0.81
2023-02-28T01:00:02.151Z,0.80
2023-02-28T01:01:02.140Z,0.80
2023-02-28T01:02:02.147Z,0.81
2023-02-28T01:03:02.133Z,0.80
2023-02-28T01:04:02.144Z,0.80
2023-02-28T01:05:02.117Z,0.80
2023-02-28T01:06:02.086Z,0.78
2023-02-28T01:07:02.091Z,0.77
2023-02-28T01:08:02.061Z,0.77
2023-02-28T01:09:02.115Z,0.78
2023-02-28T01:10:02.056Z,0.77
2023-02-28T01:11:02.042Z,0.77
2023-02-28T01:12:01.984Z,0.77
2023-02-28T01:13:02.004Z,0.74
2023-02-28T01:14:02.010Z,0.71
2023-02-28T01:15:01.999Z,0.70
2023-02-28T01:16:02.026Z,0.70
2023-02-28T01:17:01.935Z,0.68
2023-02-28T01:18:01.942Z,0.68
2023-02-28T01:19:01.908Z,0.67
2023-02-28T01:20:01.960Z,0.67
2023-02-28T01:21:02.624Z,0.64
2023-02-28T01:22:01.861Z,0.64
2023-02-28T01:23:01.896Z,0.64
2023-02-28T01:24:01.875Z,0.63
2023-02-28T01:25:01.864Z,0.63
2023-02-28T01:26:01.812Z,0.63
2023-02-28T01:27:01.837Z,0.62
2023-02-28T01:28:01.793Z,0.59
2023-02-28T01:29:01.798Z,0.57
2023-02-28T01:30:01.781Z,0.57
2023-02-28T01:31:01.776Z,0.59
2023-02-28T01:32:01.755Z,0.60
2023-02-28T01:33:01.738Z,0.57
2023-02-28T01:34:01.723Z,0.57
2023-02-28T01:35:01.729Z,0.59
2023-02-28T01:36:01.710Z,0.59
2023-02-28T01:37:01.689Z,0.62
2023-02-28T01:38:15.741Z,0.59
2023-02-28T01:39:02.656Z,0.59
2023-02-28T01:40:01.696Z,0.59
2023-02-28T01:41:01.668Z,0.56
2023-02-28T01:42:01.647Z,0.59
2023-02-28T01:43:01.635Z,0.59
2023-02-28T01:44:01.617Z,0.57
2023-02-28T01:45:01.601Z,0.57
2023-02-28T01:46:01.604Z,0.57
2023-02-28T01:47:01.550Z,0.53
2023-02-28T01:48:01.537Z,0.52
2023-02-28T01:49:01.581Z,0.52
2023-02-28T01:50:01.516Z,0.52
2023-02-28T01:51:01.513Z,0.52
2023-02-28T01:52:01.508Z,0.52
2023-02-28T01:53:01.497Z,0.52
2023-02-28T01:54:01.510Z,0.53
2023-02-28T01:55:01.458Z,0.53
2023-02-28T01:56:01.469Z,0.56
2023-02-28T01:57:01.447Z,0.57
2023-02-28T01:58:01.410Z,0.60
2023-02-28T01:59:01.417Z,0.59
2023-02-28T02:00:01.413Z,0.59
2023-02-28T02:01:01.362Z,0.62
2023-02-28T02:02:01.462Z,0.59
2023-02-28T02:03:01.405Z,0.59
2023-02-28T02:04:01.334Z,0.59
2023-02-28T02:05:01.351Z,0.56
2023-02-28T02:06:01.384Z,0.56
2023-02-28T02:07:01.290Z,0.57
2023-02-28T02:08:01.278Z,0.53
2023-02-28T02:09:01.257Z,0.56
2023-02-28T02:10:01.343Z,0.52
2023-02-28T02:11:01.226Z,0.56
2023-02-28T02:12:01.258Z,0.56
2023-02-28T02:13:01.203Z,0.57
2023-02-28T02:14:01.204Z,0.56
2023-02-28T02:15:01.197Z,0.56
2023-02-28T02:16:01.314Z,0.53
2023-02-28T02:17:01.193Z,0.53
2023-02-28T02:18:01.180Z,0.57
2023-02-28T02:19:01.163Z,0.57
2023-02-28T02:20:01.195Z,0.57
2023-02-28T02:21:01.122Z,0.57
2023-02-28T02:22:01.162Z,0.56
2023-02-28T02:23:01.192Z,0.56
2023-02-28T02:24:01.079Z,0.56
2023-02-28T02:25:01.063Z,0.56
2023-02-28T02:26:01.060Z,0.53
2023-02-28T02:27:01.047Z,0.52
2023-02-28T02:28:01.028Z,0.52
2023-02-28T02:29:01.017Z,0.52
2023-02-28T02:30:01.050Z,0.51
2023-02-28T02:31:01.050Z,0.49
2023-02-28T02:32:01.052Z,0.48
2023-02-28T02:33:00.953Z,0.48
2023-02-28T02:34:01.048Z,0.48
2023-02-28T02:35:00.955Z,0.48
2023-02-28T02:36:01.018Z,0.45
2023-02-28T02:37:00.953Z,0.44
2023-02-28T02:38:00.929Z,0.43
2023-02-28T02:39:00.919Z,0.44
2023-02-28T02:40:00.926Z,0.44
2023-02-28T02:41:00.932Z,0.43
2023-02-28T02:42:00.905Z,0.43
2023-02-28T02:43:00.875Z,0.43
2023-02-28T02:44:00.878Z,0.43
2023-02-28T02:45:00.798Z,0.43
2023-02-28T02:46:00.842Z,0.43
2023-02-28T02:47:00.782Z,0.43
2023-02-28T02:48:00.795Z,0.44
2023-02-28T02:49:00.783Z,0.44
2023-02-28T02:50:00.841Z,0.45
2023-02-28T02:51:00.728Z,0.44
2023-02-28T02:52:00.784Z,0.41
2023-02-28T02:53:00.709Z,0.44
2023-02-28T02:54:00.700Z,0.43
2023-02-28T02:55:00.675Z,0.44
2023-02-28T02:56:00.698Z,0.48
2023-02-28T02:57:00.678Z,0.45
2023-02-28T02:58:00.720Z,0.44
2023-02-28T02:59:00.623Z,0.44
2023-02-28T03:00:00.653Z,0.43
2023-02-28T03:01:00.669Z,0.43
2023-02-28T03:02:00.678Z,0.43
2023-02-28T03:03:00.597Z,0.41
2023-02-28T03:04:00.678Z,0.41
2023-02-28T03:05:00.563Z,0.40
2023-02-28T03:06:00.600Z,0.35
2023-02-28T03:07:00.527Z,0.34
2023-02-28T03:08:00.525Z,0.33
2023-02-28T03:09:00.517Z,0.33
2023-02-28T03:10:00.584Z,0.30
2023-02-28T03:11:00.468Z,0.30
2023-02-28T03:12:00.497Z,0.28
2023-02-28T03:13:00.449Z,0.28
2023-02-28T03:14:00.487Z,0.28
2023-02-28T03:15:00.521Z,0.30
2023-02-28T03:16:00.500Z,0.28
2023-02-28T03:17:00.441Z,0.25
2023-02-28T03:18:00.389Z,0.26
2023-02-28T03:19:00.405Z,0.23
2023-02-28T03:20:00.395Z,0.22
2023-02-28T03:21:00.359Z,0.20
2023-02-28T03:22:00.353Z,0.19
2023-02-28T03:23:00.328Z,0.17
2023-02-28T03:24:00.350Z,0.15
2023-02-28T03:25:00.315Z,0.13
2023-02-28T03:26:00.300Z,0.15
2023-02-28T03:27:00.275Z,0.15
2023-02-28T03:28:00.297Z,0.16
2023-02-28T03:29:00.298Z,0.15
2023-02-28T03:30:00.327Z,0.13
2023-02-28T03:31:00.248Z,0.10
2023-02-28T03:32:00.346Z,0.05
2023-02-28T03:33:00.220Z,0.05
2023-02-28T03:34:00.233Z,0.02
2023-02-28T03:35:00.179Z,0.02
2023-02-28T03:36:00.362Z,0.02
2023-02-28T03:37:00.240Z,0.01
2023-02-28T03:38:00.175Z,0.01
2023-02-28T03:39:00.169Z,-0.02
2023-02-28T03:40:00.165Z,-0.03
2023-02-28T03:41:00.107Z,-0.03
2023-02-28T03:42:00.108Z,-0.03
2023-02-28T03:43:00.093Z,-0.03
2023-02-28T03:44:00.135Z,-0.06
2023-02-28T03:45:00.084Z,-0.05
2023-02-28T03:46:00.087Z,-0.05
2023-02-28T03:47:00.062Z,-0.05
2023-02-28T03:48:00.106Z,-0.05
2023-02-28T03:49:00.005Z,-0.05
2023-02-28T03:50:00.097Z,-0.05
2023-02-28T03:50:59.965Z,-0.05
2023-02-28T03:52:00.060Z,-0.05
2023-02-28T03:52:59.955Z,-0.05
2023-02-28T03:53:59.981Z,-0.06
2023-02-28T03:54:59.935Z,-0.05
2023-02-28T03:55:59.927Z,-0.06
2023-02-28T03:56:59.961Z,-0.05
2023-02-28T03:57:59.925Z,-0.05
2023-02-28T03:58:59.899Z,-0.08
2023-02-28T03:59:59.873Z,-0.08
2023-02-28T04:00:59.879Z,-0.09
2023-02-28T04:01:59.913Z,-0.12
2023-02-28T04:02:59.825Z,-0.12
2023-02-28T04:03:59.841Z,-0.14
2023-02-28T04:04:59.831Z,-0.12
2023-02-28T04:05:59.807Z,-0.16
2023-02-28T04:06:59.858Z,-0.17
2023-02-28T04:07:59.789Z,-0.19
2023-02-28T04:08:59.739Z,-0.19
2023-02-28T04:09:59.776Z,-0.20
2023-02-28T04:10:59.720Z,-0.21
2023-02-28T04:11:59.758Z,-0.21
2023-02-28T04:12:59.745Z,-0.21
2023-02-28T04:13:59.719Z,-0.23
2023-02-28T04:14:59.668Z,-0.21
2023-02-28T04:15:59.682Z,-0.23
2023-02-28T04:16:59.638Z,-0.23
2023-02-28T04:17:59.722Z,-0.21
2023-02-28T04:18:59.609Z,-0.27
2023-02-28T04:19:59.616Z,-0.27
2023-02-28T04:20:59.587Z,-0.30
2023-02-28T04:21:59.637Z,-0.32
2023-02-28T04:22:59.617Z,-0.32
2023-02-28T04:23:59.567Z,-0.32
2023-02-28T04:24:59.531Z,-0.34
2023-02-28T04:25:59.559Z,-0.31
2023-02-28T04:26:59.534Z,-0.32
2023-02-28T04:27:59.606Z,-0.34
2023-02-28T04:28:59.515Z,-0.34
2023-02-28T04:29:59.534Z,-0.35
2023-02-28T04:30:59.462Z,-0.38
2023-02-28T04:31:59.582Z,-0.38
2023-02-28T04:32:59.783Z,-0.39
2023-02-28T04:33:59.486Z,-0.39
2023-02-28T04:34:59.405Z,-0.41
2023-02-28T04:35:59.442Z,-0.41
2023-02-28T04:37:12.401Z,-0.41
2023-02-28T04:38:00.477Z,-0.44
2023-02-28T04:38:59.354Z,-0.42
2023-02-28T04:39:59.351Z,-0.44
2023-02-28T04:40:59.333Z,-0.44
2023-02-28T04:41:59.340Z,-0.45
2023-02-28T04:42:59.351Z,-0.47
2023-02-28T04:43:59.344Z,-0.52
2023-02-28T04:44:59.284Z,-0.52
2023-02-28T04:45:59.349Z,-0.53
2023-02-28T04:46:59.313Z,-0.53
2023-02-28T04:47:59.269Z,-0.55
2023-02-28T04:48:59.239Z,-0.55
2023-02-28T04:49:59.275Z,-0.55
2023-02-28T04:50:59.217Z,-0.55
2023-02-28T04:51:59.236Z,-0.53
2023-02-28T04:52:59.231Z,-0.49
2023-02-28T04:53:59.224Z,-0.49
2023-02-28T04:54:59.154Z,-0.49
2023-02-28T04:55:59.181Z,-0.49
2023-02-28T04:56:59.156Z,-0.49
2023-02-28T04:57:59.212Z,-0.49
2023-02-28T04:58:59.130Z,-0.50
2023-02-28T04:59:59.103Z,-0.50
2023-02-28T05:00:59.078Z,-0.50
2023-02-28T05:01:59.151Z,-0.52
2023-02-28T05:02:59.042Z,-0.52
2023-02-28T05:03:59.119Z,-0.50
2023-02-28T05:04:59.172Z,-0.47
2023-02-28T05:05:59.057Z,-0.47
2023-02-28T05:06:59.047Z,-0.44
2023-02-28T05:07:59.028Z,-0.42
2023-02-28T05:08:59.024Z,-0.42
2023-02-28T05:09:59.006Z,-0.42
2023-02-28T05:10:58.981Z,-0.45
2023-02-28T05:11:58.985Z,-0.42
2023-02-28T05:12:58.992Z,-0.44
2023-02-28T05:13:58.929Z,-0.42
2023-02-28T05:14:58.915Z,-0.41
2023-02-28T05:15:58.977Z,-0.41
2023-02-28T05:16:58.896Z,-0.41
2023-02-28T05:17:58.880Z,-0.39
2023-02-28T05:18:58.972Z,-0.42
2023-02-28T05:20:09.813Z,-0.42
2023-02-28T05:20:59.879Z,-0.45
2023-02-28T05:21:58.843Z,-0.45
2023-02-28T05:22:58.803Z,-0.49
2023-02-28T05:23:58.841Z,-0.53
2023-02-28T05:24:58.771Z,-0.55
2023-02-28T05:25:58.840Z,-0.56
2023-02-28T05:26:58.780Z,-0.58
2023-02-28T05:27:58.768Z,-0.59
2023-02-28T05:28:58.781Z,-0.60
2023-02-28T05:29:58.736Z,-0.60
2023-02-28T05:30:58.723Z,-0.58
2023-02-28T05:31:58.790Z,-0.56
2023-02-28T05:32:58.696Z,-0.56
2023-02-28T05:33:58.736Z,-0.52
2023-02-28T05:34:58.672Z,-0.53
2023-02-28T05:35:58.744Z,-0.50
2023-02-28T05:36:58.640Z,-0.55
2023-02-28T05:37:58.630Z,-0.53
2023-02-28T05:38:58.657Z,-0.52
2023-02-28T05:39:58.609Z,-0.52
2023-02-28T05:40:58.568Z,-0.53
2023-02-28T05:41:58.639Z,-0.52
2023-02-28T05:42:58.589Z,-0.52
2023-02-28T05:43:58.580Z,-0.50
2023-02-28T05:44:58.593Z,-0.45
2023-02-28T05:45:58.579Z,-0.45
2023-02-28T05:46:58.512Z,-0.45
2023-02-28T05:47:58.492Z,-0.44
2023-02-28T05:48:58.570Z,-0.44
2023-02-28T05:49:58.452Z,-0.42
2023-02-28T05:50:58.450Z,-0.42
2023-02-28T05:51:58.473Z,-0.42
2023-02-28T05:52:58.467Z,-0.41
2023-02-28T05:53:58.420Z,-0.39
2023-02-28T05:54:58.434Z,-0.39
2023-02-28T05:55:58.396Z,-0.39
2023-02-28T05:56:58.423Z,-0.39
2023-02-28T05:57:58.378Z,-0.38
2023-02-28T05:58:58.393Z,-0.38
2023-02-28T05:59:58.354Z,-0.39
2023-02-28T06:00:58.360Z,-0.38
2023-02-28T06:01:58.358Z,-0.38
2023-02-28T06:02:58.556Z,-0.37
2023-02-28T06:08:37.841Z,-0.39
2023-02-28T06:09:37.841Z,-0.41
2023-02-28T06:10:37.810Z,-0.39
2023-02-28T06:11:40.782Z,-0.39
2023-02-28T06:12:37.795Z,-0.39
2023-02-28T06:13:37.748Z,-0.37
2023-02-28T06:14:37.780Z,-0.34
2023-02-28T06:15:37.729Z,-0.32
2023-02-28T06:16:37.763Z,-0.31
2023-02-28T06:17:37.682Z,-0.31
2023-02-28T06:18:37.708Z,-0.30
2023-02-28T06:19:37.741Z,-0.27
2023-02-28T06:20:37.693Z,-0.30
2023-02-28T06:21:37.670Z,-0.27
2023-02-28T06:22:37.632Z,-0.24
2023-02-28T06:23:37.645Z,-0.26
2023-02-28T06:24:37.649Z,-0.24
2023-02-28T06:25:37.612Z,-0.26
2023-02-28T06:26:37.627Z,-0.24
2023-02-28T06:27:37.588Z,-0.26
2023-02-28T06:28:37.586Z,-0.26
2023-02-28T06:30:47.014Z,-0.23
2023-02-28T06:31:47.109Z,-0.21
2023-02-28T06:32:49.794Z,-0.21
2023-02-28T06:33:46.937Z,-0.20
2023-02-28T06:34:46.966Z,-0.20
2023-02-28T06:35:47.026Z,-0.20
2023-02-28T06:36:46.965Z,-0.20
2023-02-28T06:37:46.891Z,-0.21
2023-02-28T06:38:46.925Z,-0.20
2023-02-28T06:39:46.859Z,-0.19
2023-02-28T06:40:46.867Z,-0.20
2023-02-28T06:41:54.786Z,-0.19
2023-02-28T06:42:47.837Z,-0.21
2023-02-28T06:43:46.833Z,-0.21
2023-02-28T06:44:46.893Z,-0.21
2023-02-28T06:45:46.823Z,-0.20
2023-02-28T06:46:46.812Z,-0.20
2023-02-28T06:47:46.775Z,-0.20
2023-02-28T06:48:46.773Z,-0.19
2023-02-28T06:49:46.779Z,-0.19
2023-02-28T06:50:46.766Z,-0.20
2023-02-28T06:51:46.751Z,-0.20
2023-02-28T06:52:46.715Z,-0.19
2023-02-28T06:53:46.722Z,-0.19
2023-02-28T06:54:46.783Z,-0.17
2023-02-28T06:55:46.675Z,-0.17
2023-02-28T06:56:46.699Z,-0.16
2023-02-28T06:57:46.688Z,-0.14
2023-02-28T06:58:46.659Z,-0.09
2023-02-28T06:59:46.648Z,-0.09
2023-02-28T07:00:46.666Z,-0.12
2023-02-28T07:01:46.719Z,-0.08
2023-02-28T07:02:46.646Z,-0.08
2023-02-28T07:03:46.561Z,-0.06
2023-02-28T07:04:46.639Z,-0.08
2023-02-28T07:05:46.606Z,-0.05
2023-02-28T07:06:46.543Z,-0.03
2023-02-28T07:07:46.550Z,-0.02
2023-02-28T07:08:46.550Z,-0.02
2023-02-28T07:09:46.536Z,-0.01
2023-02-28T07:10:46.502Z,0.01
2023-02-28T07:11:46.456Z,0.02
2023-02-28T07:12:46.465Z,0.04
2023-02-28T07:13:46.463Z,0.07
2023-02-28T07:14:46.456Z,0.10
2023-02-28T07:15:46.478Z,0.10
2023-02-28T07:16:46.472Z,0.12
2023-02-28T07:17:46.408Z,0.16
2023-02-28T07:18:46.428Z,0.16
2023-02-28T07:19:46.406Z,0.17
2023-02-28T07:20:46.390Z,0.20
2023-02-28T07:21:46.367Z,0.22
2023-02-28T07:22:46.366Z,0.23
2023-02-28T07:23:46.341Z,0.25
2023-02-28T07:24:46.344Z,0.26
2023-02-28T07:25:46.342Z,0.30
2023-02-28T07:26:46.288Z,0.30
2023-02-28T07:27:46.294Z,0.33
2023-02-28T07:28:46.286Z,0.35
2023-02-28T07:29:46.247Z,0.37
2023-02-28T07:30:46.294Z,0.38
2023-02-28T07:31:46.235Z,0.41
2023-02-28T07:32:46.217Z,0.43
2023-02-28T07:33:46.210Z,0.45
2023-02-28T07:34:46.199Z,0.49
2023-02-28T07:35:46.260Z,0.53
2023-02-28T07:36:46.158Z,0.57
2023-02-28T07:37:46.177Z,0.59
2023-02-28T07:38:48.377Z,0.63
2023-02-28T07:39:46.128Z,0.70
2023-02-28T07:40:46.141Z,0.72
2023-02-28T07:41:46.127Z,0.75
2023-02-28T07:42:46.139Z,0.77
2023-02-28T07:43:46.119Z,0.80
2023-02-28T07:44:46.071Z,0.82
2023-02-28T07:45:46.096Z,0.86
2023-02-28T07:46:46.091Z,0.89
2023-02-28T07:47:46.059Z,0.93
2023-02-28T07:48:46.048Z,0.96
2023-02-28T07:49:46.028Z,1.00
2023-02-28T07:50:46.006Z,1.04
2023-02-28T07:51:46.027Z,1.08
2023-02-28T07:52:45.986Z,1.13
2023-02-28T07:53:45.987Z,1.18
2023-02-28T07:54:45.976Z,1.25
2023-02-28T07:55:45.995Z,1.26
2023-02-28T07:56:45.909Z,1.31
2023-02-28T07:57:45.920Z,1.38
2023-02-28T07:58:45.878Z,1.43
2023-02-28T07:59:46.268Z,1.46
2023-02-28T08:00:45.954Z,1.50
2023-02-28T08:01:45.947Z,1.56
2023-02-28T08:02:45.877Z,1.57
2023-02-28T08:03:45.840Z,1.61
2023-02-28T08:04:45.860Z,1.65
2023-02-28T08:05:45.844Z,1.68
2023-02-28T08:06:45.803Z,1.70
2023-02-28T08:07:45.788Z,1.71
2023-02-28T08:08:45.868Z,1.74
2023-02-28T08:09:45.810Z,1.79
2023-02-28T08:10:45.771Z,1.82
2023-02-28T08:11:45.754Z,1.88
2023-02-28T08:12:45.774Z,1.89
2023-02-28T08:13:45.775Z,1.92
2023-02-28T08:14:45.711Z,1.93
2023-02-28T08:15:45.713Z,1.98
2023-02-28T08:16:45.673Z,1.98
2023-02-28T08:17:45.693Z,2.00
2023-02-28T08:18:45.676Z,2.02
2023-02-28T08:19:45.672Z,2.05
2023-02-28T08:20:45.604Z,2.07
2023-02-28T08:21:45.661Z,2.09
2023-02-28T08:22:46.104Z,2.12
2023-02-28T08:23:45.602Z,2.18
2023-02-28T08:24:45.566Z,2.20
2023-02-28T08:25:45.606Z,2.26
2023-02-28T08:26:45.591Z,2.30
2023-02-28T08:27:45.530Z,2.32
2023-02-28T08:28:45.548Z,2.33
2023-02-28T08:29:45.534Z,2.37
2023-02-28T08:30:45.488Z,2.40
2023-02-28T08:31:45.608Z,2.44
2023-02-28T08:32:45.508Z,2.48
2023-02-28T08:33:45.510Z,2.51
2023-02-28T08:34:47.882Z,2.53
2023-02-28T08:35:45.515Z,2.55
2023-02-28T08:36:45.546Z,2.59
2023-02-28T08:37:45.436Z,2.62
2023-02-28T08:38:45.378Z,2.65
2023-02-28T08:39:45.387Z,2.65
2023-02-28T08:40:45.444Z,2.71
2023-02-28T08:41:46.842Z,2.73
2023-02-28T08:42:45.374Z,2.76
2023-02-28T08:43:45.407Z,2.79
2023-02-28T08:44:45.336Z,2.79
2023-02-28T08:45:45.423Z,2.83
2023-02-28T08:46:45.313Z,2.84
2023-02-28T08:47:45.309Z,2.89
2023-02-28T08:48:45.283Z,2.92
2023-02-28T08:49:45.352Z,2.97
2023-02-28T08:50:50.419Z,2.98
2023-02-28T08:51:46.264Z,3.01
2023-02-28T08:52:45.208Z,3.04
2023-02-28T08:53:45.243Z,3.07
2023-02-28T08:54:45.204Z,3.07
2023-02-28T08:55:45.178Z,3.08
2023-02-28T08:56:45.156Z,3.13
2023-02-28T08:57:45.148Z,3.12
2023-02-28T08:58:45.155Z,3.12
2023-02-28T08:59:45.154Z,3.10
2023-02-28T09:00:45.120Z,3.10
2023-02-28T09:01:45.104Z,3.12
2023-02-28T09:02:45.105Z,3.13
2023-02-28T09:03:45.148Z,3.13
2023-02-28T09:04:45.110Z,3.16
2023-02-28T09:05:45.088Z,3.19
2023-02-28T09:06:45.062Z,3.19
2023-02-28T09:07:45.015Z,3.17
2023-02-28T09:08:45.034Z,3.20
2023-02-28T09:09:44.998Z,3.20
2023-02-28T09:10:44.988Z,3.20
2023-02-28T09:11:45.007Z,3.23
2023-02-28T09:12:44.985Z,3.26
2023-02-28T09:13:44.978Z,3.28
2023-02-28T09:14:44.957Z,3.26
2023-02-28T09:15:44.952Z,3.28
2023-02-28T09:16:44.972Z,3.26
2023-02-28T09:17:47.026Z,3.25
2023-02-28T09:18:44.938Z,3.25
2023-02-28T09:19:44.912Z,3.26
2023-02-28T09:20:44.849Z,3.28
2023-02-28T09:21:44.880Z,3.28
2023-02-28T09:22:44.865Z,3.30
2023-02-28T09:23:44.856Z,3.30
2023-02-28T09:24:44.849Z,3.28
2023-02-28T09:25:44.799Z,3.31
2023-02-28T09:26:56.423Z,3.30
2023-02-28T09:27:45.806Z,3.31
2023-02-28T09:28:44.787Z,3.33
2023-02-28T09:29:44.758Z,3.31
2023-02-28T09:30:44.814Z,3.31
2023-02-28T09:31:44.754Z,3.33
2023-02-28T09:32:44.747Z,3.34
2023-02-28T09:33:44.736Z,3.42
2023-02-28T09:34:44.714Z,3.45
2023-02-28T09:35:44.681Z,3.49
2023-02-28T09:36:46.745Z,3.46
2023-02-28T09:37:44.702Z,3.46
2023-02-28T09:38:44.628Z,3.52
2023-02-28T09:39:44.678Z,3.53
2023-02-28T09:40:44.603Z,3.56
2023-02-28T09:41:44.609Z,3.56
2023-02-28T09:42:44.608Z,3.54
2023-02-28T09:43:44.576Z,3.57
2023-02-28T09:44:45.220Z,3.62
2023-02-28T09:45:44.603Z,3.62
2023-02-28T09:46:44.526Z,3.63
2023-02-28T09:47:44.562Z,3.63
2023-02-28T09:48:44.533Z,3.63
2023-02-28T09:49:44.506Z,3.68
2023-02-28T09:50:44.506Z,3.64
2023-02-28T09:51:44.561Z,3.68
2023-02-28T09:52:44.688Z,3.71
2023-02-28T09:53:47.926Z,3.70
2023-02-28T09:54:45.450Z,3.70
2023-02-28T09:55:47.150Z,3.72
2023-02-28T09:56:44.476Z,3.72
2023-02-28T09:57:44.756Z,3.74
2023-02-28T09:58:44.437Z,3.74
2023-02-28T09:59:44.618Z,3.72
2023-02-28T10:00:44.377Z,3.71
2023-02-28T10:01:44.450Z,3.72
2023-02-28T10:02:44.380Z,3.70
2023-02-28T10:03:44.483Z,3.72
2023-02-28T10:04:44.401Z,3.75
2023-02-28T10:05:44.637Z,3.78
2023-02-28T10:06:44.281Z,3.80
2023-02-28T10:07:44.294Z,3.82
2023-02-28T10:08:44.292Z,3.86
2023-02-28T10:09:44.281Z,3.84
2023-02-28T10:10:44.239Z,3.86
2023-02-28T10:11:44.242Z,3.89
2023-02-28T10:12:44.202Z,3.90
2023-02-28T10:13:44.234Z,3.90
2023-02-28T10:14:44.181Z,3.90
2023-02-28T10:15:44.214Z,3.92
2023-02-28T10:16:44.185Z,3.96
2023-02-28T10:17:55.076Z,3.93
2023-02-28T10:18:45.182Z,3.95
2023-02-28T10:19:44.157Z,3.95
2023-02-28T10:20:44.125Z,3.93
2023-02-28T10:21:44.112Z,3.92
2023-02-28T10:22:44.114Z,3.96
2023-02-28T10:23:44.090Z,3.96
2023-02-28T10:24:44.055Z,4.00
2023-02-28T10:25:44.149Z,4.00
2023-02-28T10:26:44.034Z,4.02
2023-02-28T10:27:44.023Z,4.02
2023-02-28T10:28:44.015Z,4.02
2023-02-28T10:29:44.032Z,4.04
2023-02-28T10:30:44.049Z,4.06
2023-02-28T10:31:43.984Z,4.11
2023-02-28T10:32:43.935Z,4.14
2023-02-28T10:33:43.979Z,4.18
2023-02-28T10:34:43.912Z,4.21
2023-02-28T10:35:43.940Z,4.25
2023-02-28T10:36:43.939Z,4.29
2023-02-28T10:37:43.925Z,4.31
2023-02-28T10:38:43.913Z,4.32
2023-02-28T10:39:43.875Z,4.31
2023-02-28T10:40:43.886Z,4.26
2023-02-28T10:41:43.857Z,4.29
2023-02-28T10:42:43.843Z,4.32
2023-02-28T10:43:43.833Z,4.38
2023-02-28T10:44:43.829Z,4.39
2023-02-28T10:45:43.787Z,4.39
2023-02-28T10:46:43.840Z,4.44
2023-02-28T10:47:43.764Z,4.49
2023-02-28T10:48:43.762Z,4.51
2023-02-28T10:49:43.732Z,4.53
2023-02-28T10:50:43.787Z,4.49
2023-02-28T10:51:43.739Z,4.47
2023-02-28T10:52:43.741Z,4.43
2023-02-28T10:53:59.675Z,4.43
2023-02-28T10:54:44.684Z,4.38
2023-02-28T10:55:43.695Z,4.31
2023-02-28T10:56:43.670Z,4.25
2023-02-28T10:57:43.639Z,4.20
2023-02-28T10:58:43.682Z,4.24
2023-02-28T10:59:43.632Z,4.20
2023-02-28T11:00:43.610Z,4.20
2023-02-28T11:01:43.680Z,4.24
2023-02-28T11:02:43.588Z,4.21
2023-02-28T11:03:43.561Z,4.24
2023-02-28T11:04:43.666Z,4.24
2023-02-28T11:05:43.548Z,4.28
2023-02-28T11:06:43.535Z,4.34
2023-02-28T11:07:52.970Z,4.35
2023-02-28T11:08:44.532Z,4.39
2023-02-28T11:09:43.623Z,4.35
2023-02-28T11:10:43.453Z,4.29
2023-02-28T11:11:43.482Z,4.26
2023-02-28T11:12:51.976Z,4.26
2023-02-28T11:13:44.461Z,4.25
2023-02-28T11:14:43.686Z,4.28
2023-02-28T11:15:43.505Z,4.34
2023-02-28T11:16:43.369Z,4.39
2023-02-28T11:17:43.422Z,4.49
2023-02-28T11:18:43.367Z,4.51
2023-02-28T11:19:43.358Z,4.53
2023-02-28T11:20:43.340Z,4.62
2023-02-28T11:21:43.333Z,4.65
2023-02-28T11:22:43.318Z,4.68
2023-02-28T11:23:43.296Z,4.71
2023-02-28T11:24:43.299Z,4.75
2023-02-28T11:25:43.269Z,4.77
2023-02-28T11:26:43.284Z,4.77
2023-02-28T11:27:43.301Z,4.75
2023-02-28T11:28:43.254Z,4.69
2023-02-28T11:29:43.282Z,4.71
2023-02-28T11:30:45.553Z,4.74
2023-02-28T11:31:43.216Z,4.72
2023-02-28T11:32:43.252Z,4.75
2023-02-28T11:33:43.214Z,4.72
2023-02-28T11:34:43.151Z,4.67
2023-02-28T11:35:44.061Z,4.56
2023-02-28T11:36:44.135Z,4.49
2023-02-28T11:37:43.143Z,4.39
2023-02-28T11:38:43.112Z,4.36
2023-02-28T11:39:43.128Z,4.34
2023-02-28T11:40:43.116Z,4.32
2023-02-28T11:41:43.087Z,4.29
2023-02-28T11:42:43.031Z,4.26
2023-02-28T11:43:43.041Z,4.24
2023-02-28T11:44:43.033Z,4.18
2023-02-28T11:45:43.046Z,4.16
2023-02-28T11:46:43.109Z,4.14
2023-02-28T11:47:43.000Z,4.13
2023-02-28T11:48:43.061Z,4.08
2023-02-28T11:49:43.002Z,4.04
2023-02-28T11:50:42.967Z,4.04
2023-02-28T11:51:42.951Z,4.00
2023-02-28T11:52:42.940Z,4.04
2023-02-28T11:53:42.957Z,4.04
2023-02-28T11:54:42.924Z,4.10
2023-02-28T11:55:43.003Z,4.14
2023-02-28T11:56:43.680Z,4.18
2023-02-28T11:57:42.904Z,4.24
2023-02-28T11:58:42.867Z,4.28
2023-02-28T11:59:42.833Z,4.29
2023-02-28T12:00:42.855Z,4.31
2023-02-28T12:01:42.973Z,4.32
2023-02-28T12:02:42.936Z,4.35
2023-02-28T12:03:42.783Z,4.38
2023-02-28T12:04:42.788Z,4.44
2023-02-28T12:05:42.786Z,4.46
2023-02-28T12:06:42.753Z,4.47
2023-02-28T12:07:42.734Z,4.51
2023-02-28T12:08:42.737Z,4.54
2023-02-28T12:09:42.744Z,4.53
2023-02-28T12:10:42.725Z,4.53
2023-02-28T12:11:42.692Z,4.51
2023-02-28T12:12:42.715Z,4.46
2023-02-28T12:13:42.684Z,4.38
2023-02-28T12:14:42.680Z,4.35
2023-02-28T12:15:42.674Z,4.38
2023-02-28T12:16:42.710Z,4.44
2023-02-28T12:17:42.653Z,4.51
2023-02-28T12:18:42.639Z,4.54
2023-02-28T12:19:44.651Z,4.59
2023-02-28T12:20:42.604Z,4.64
2023-02-28T12:21:42.589Z,4.67
2023-02-28T12:22:42.577Z,4.72
2023-02-28T12:23:42.534Z,4.77
2023-02-28T12:24:42.554Z,4.83
2023-02-28T12:25:42.531Z,4.86
2023-02-28T12:26:42.548Z,4.87
2023-02-28T12:27:42.639Z,4.86
2023-02-28T12:28:42.483Z,4.88
2023-02-28T12:29:42.488Z,4.90
2023-02-28T12:30:42.557Z,4.91
2023-02-28T12:31:42.492Z,4.94
2023-02-28T12:32:42.463Z,4.94
2023-02-28T12:33:42.448Z,5.02
2023-02-28T12:34:42.421Z,5.04
2023-02-28T12:35:42.560Z,5.06
2023-02-28T12:36:42.438Z,5.05
2023-02-28T12:37:42.397Z,5.04
2023-02-28T12:38:42.373Z,5.01
2023-02-28T12:39:50.186Z,4.99
2023-02-28T12:40:43.383Z,4.96
2023-02-28T12:41:42.347Z,4.91
2023-02-28T12:42:42.336Z,4.93
2023-02-28T12:43:42.303Z,4.96
2023-02-28T12:44:42.303Z,5.02
2023-02-28T12:45:42.369Z,5.09
2023-02-28T12:46:42.370Z,5.08
2023-02-28T12:47:42.294Z,5.06
2023-02-28T12:48:42.232Z,5.04
2023-02-28T12:49:42.249Z,5.05
2023-02-28T12:50:42.228Z,5.04
2023-02-28T12:51:42.186Z,4.96
2023-02-28T12:52:42.222Z,4.91
2023-02-28T12:53:42.188Z,4.91
2023-02-28T12:54:42.152Z,4.88
2023-02-28T12:55:42.132Z,4.87
2023-02-28T12:56:42.153Z,4.86
2023-02-28T12:57:42.125Z,4.86
2023-02-28T12:58:42.161Z,4.87
2023-02-28T12:59:42.097Z,4.91
2023-02-28T13:00:42.079Z,4.93
2023-02-28T13:01:42.101Z,4.96
2023-02-28T13:02:42.238Z,5.02
2023-02-28T13:03:42.046Z,5.05
2023-02-28T13:04:42.048Z,5.05
2023-02-28T13:05:42.006Z,5.06
2023-02-28T13:06:42.035Z,5.06
2023-02-28T13:07:42.014Z,5.05
2023-02-28T13:08:41.987Z,5.05
2023-02-28T13:09:41.957Z,5.04
2023-02-28T13:10:41.983Z,5.08
2023-02-28T13:11:41.933Z,5.08
2023-02-28T13:12:41.944Z,5.08
2023-02-28T13:13:41.910Z,5.09
2023-02-28T13:14:41.922Z,5.14
2023-02-28T13:15:41.888Z,5.14
2023-02-28T13:16:41.999Z,5.12